Time;durP1;ratioP1;P1;durP2;ratioP2;P2;SDS_P1;SDS_P2;PMS_P1;PMS_P2;Temp;Humidity;BMP_temperature;BMP_pressure;BME280_temperature;BME280_humidity;BME280_pressure;Samples;Min_cycle;Max_cycle;Signal;HPM_P1;HPM_P2
2023/12/10 00:00:41;;;;;;;57.67;42.33;;;;;;;10.53;100.00;101645.94;143729;598;46002;-82
2023/12/10 00:03:08;;;;;;;51.50;36.85;;;;;;;10.63;100.00;101637.66;143730;604;45926;-82
2023/12/10 00:05:35;;;;;;;48.58;34.95;;;;;;;10.67;100.00;101636.31;143732;581;45010;-80
2023/12/10 00:08:02;;;;;;;46.40;35.78;;;;;;;10.60;100.00;101635.31;143722;608;49002;-81
2023/12/10 00:10:29;;;;;;;55.17;36.67;;;;;;;10.59;100.00;101637.19;143726;607;47009;-82
2023/12/10 00:12:56;;;;;;;50.60;35.92;;;;;;;10.62;100.00;101635.97;143725;610;47006;-82
2023/12/10 00:15:23;;;;;;;48.60;34.83;;;;;;;10.65;100.00;101635.62;143733;610;46002;-82
2023/12/10 00:17:50;;;;;;;54.17;36.67;;;;;;;10.58;100.00;101629.31;143726;569;46008;-81
2023/12/10 00:20:16;;;;;;;39.50;27.27;;;;;;;10.58;100.00;101635.50;143729;568;46002;-83
2023/12/10 00:22:46;;;;;;;41.50;29.15;;;;;;;10.53;100.00;101640.56;143729;595;46002;-82
2023/12/10 00:25:13;;;;;;;40.53;30.73;;;;;;;10.57;100.00;101641.06;143727;595;48994;-83
2023/12/10 00:27:39;;;;;;;38.78;29.23;;;;;;;10.62;100.00;101638.69;143726;580;46002;-83
2023/12/10 00:30:07;;;;;;;44.53;30.70;;;;;;;10.66;100.00;101629.25;143723;580;51004;-83
2023/12/10 00:32:34;;;;;;;43.55;30.27;;;;;;;10.71;100.00;101632.25;143726;619;48006;-83
2023/12/10 00:35:01;;;;;;;40.63;29.33;;;;;;;10.66;100.00;101625.75;143729;626;47006;-81
2023/12/10 00:37:28;;;;;;;37.28;26.52;;;;;;;10.61;100.00;101631.62;143724;598;48008;-83
2023/12/10 00:39:55;;;;;;;37.78;27.62;;;;;;;10.57;100.00;101631.16;143717;610;53004;-81
2023/12/10 00:42:22;;;;;;;40.33;28.55;;;;;;;10.58;100.00;101619.41;143721;593;47002;-81
2023/12/10 00:44:49;;;;;;;41.60;27.00;;;;;;;10.53;100.00;101637.06;143726;586;47006;-82
2023/12/10 00:47:16;;;;;;;41.22;28.40;;;;;;;10.39;100.00;101641.31;143730;578;46008;-82
2023/12/10 00:49:43;;;;;;;45.78;29.35;;;;;;;10.40;100.00;101640.28;143730;602;46002;-83
2023/12/10 00:52:11;;;;;;;43.35;29.45;;;;;;;10.45;100.00;101636.06;143728;627;46926;-82
2023/12/10 00:54:38;;;;;;;28.58;22.95;;;;;;;10.49;100.00;101635.72;143734;609;46002;-82
2023/12/10 00:57:05;;;;;;;24.63;17.40;;;;;;;10.52;100.00;101633.53;143730;633;46002;-82
2023/12/10 00:59:32;;;;;;;28.48;19.40;;;;;;;10.56;100.00;101621.41;143723;595;49008;-82
2023/12/10 01:02:00;;;;;;;24.60;18.23;;;;;;;10.54;100.00;101615.38;143727;572;46926;-82
2023/12/10 01:04:27;;;;;;;31.00;19.73;;;;;;;10.56;100.00;101615.22;143732;590;45010;-82
2023/12/10 01:06:54;;;;;;;20.73;16.45;;;;;;;10.53;100.00;101620.94;143730;626;46010;-82
2023/12/10 01:09:21;;;;;;;61.72;33.15;;;;;;;10.50;100.00;101608.69;143732;583;47002;-82
2023/12/10 01:11:48;;;;;;;34.47;23.27;;;;;;;10.46;100.00;101607.38;143724;584;47019;-81
2023/12/10 01:14:15;;;;;;;24.00;18.42;;;;;;;10.43;100.00;101605.03;143731;615;46002;-82
2023/12/10 01:16:42;;;;;;;27.00;20.23;;;;;;;10.42;100.00;101606.06;143721;593;47008;-82
2023/12/10 01:19:09;;;;;;;31.83;21.92;;;;;;;10.49;100.00;101609.72;143729;587;46004;-82
2023/12/10 01:21:36;;;;;;;37.92;25.60;;;;;;;10.43;100.00;101605.88;143725;578;47006;-82
2023/12/10 01:24:05;;;;;;;36.95;23.17;;;;;;;10.41;100.00;101607.88;143730;682;47004;-82
2023/12/10 01:26:32;;;;;;;31.30;21.17;;;;;;;10.45;100.00;101611.91;143730;591;46002;-81
2023/12/10 01:28:59;;;;;;;29.25;20.33;;;;;;;10.41;100.00;101617.81;143697;573;54008;-83
2023/12/10 01:31:26;;;;;;;26.45;18.70;;;;;;;10.41;100.00;101626.69;143725;566;47006;-83
2023/12/10 01:33:53;;;;;;;22.98;16.42;;;;;;;10.37;100.00;101629.87;143729;658;47002;-82
2023/12/10 01:36:23;;;;;;;25.52;16.58;;;;;;;10.36;100.00;101623.69;143731;567;45927;-81
2023/12/10 01:38:51;;;;;;;20.88;16.10;;;;;;;10.31;100.00;101623.34;143720;615;48002;-82
2023/12/10 01:41:21;;;;;;;30.12;19.30;;;;;;;10.30;100.00;101632.41;143728;577;46925;-81
2023/12/10 01:43:51;;;;;;;29.75;21.62;;;;;;;10.32;100.00;101611.59;143730;589;47004;-82
2023/12/10 01:46:18;;;;;;;42.95;31.65;;;;;;;10.29;100.00;101612.81;143724;589;48010;-82
2023/12/10 01:48:49;;;;;;;43.70;30.60;;;;;;;10.35;100.00;101611.25;143728;601;47005;-82
2023/12/10 01:51:16;;;;;;;32.83;24.20;;;;;;;10.31;100.00;101612.63;143723;584;48006;-81
2023/12/10 01:53:44;;;;;;;31.30;22.73;;;;;;;10.40;100.00;101608.94;143721;612;51000;-83
2023/12/10 01:56:11;;;;;;;36.40;24.17;;;;;;;10.40;100.00;101606.25;143718;577;49005;-82
2023/12/10 01:58:38;;;;;;;34.15;23.50;;;;;;;10.37;100.00;101621.81;143719;576;50014;-81
2023/12/10 04:02:16;;;;;;;19.27;12.50;;;;;;;9.92;100.00;101621.47;143717;586;49004;-83
2023/12/10 04:04:43;;;;;;;21.15;13.93;;;;;;;9.79;100.00;101620.16;143730;651;46006;-82
2023/12/10 04:07:10;;;;;;;19.45;13.85;;;;;;;9.79;100.00;101620.16;143728;580;46021;-82
2023/12/10 04:09:37;;;;;;;22.73;15.55;;;;;;;9.84;100.00;101620.50;143730;573;46008;-83
2023/12/10 04:12:05;;;;;;;18.65;14.65;;;;;;;9.77;100.00;101624.03;143717;588;50010;-82
2023/12/10 04:14:32;;;;;;;17.98;13.52;;;;;;;9.73;100.00;101622.69;143727;584;47004;-81
2023/12/10 04:16:59;;;;;;;18.17;13.65;;;;;;;9.78;100.00;101625.72;143729;641;46008;-82
2023/12/10 04:19:26;;;;;;;18.73;13.50;;;;;;;9.84;100.00;101615.12;143733;644;46004;-81
2023/12/10 04:21:52;;;;;;;18.23;12.98;;;;;;;9.85;100.00;101610.59;143728;582;46010;-82
2023/12/10 04:24:19;;;;;;;20.20;14.45;;;;;;;9.85;100.00;101611.44;143731;577;45925;-82
2023/12/10 04:26:46;;;;;;;20.08;16.48;;;;;;;9.79;100.00;101612.13;143724;630;47008;-81
2023/12/10 04:29:13;;;;;;;22.02;15.77;;;;;;;9.80;100.00;101607.56;143731;675;46004;-83
2023/12/10 04:31:43;;;;;;;19.75;15.98;;;;;;;9.78;100.00;101620.34;143722;567;51004;-84
2023/12/10 04:34:10;;;;;;;20.50;15.88;;;;;;;9.77;100.00;101613.31;143722;574;47006;-83
2023/12/10 04:36:37;;;;;;;21.87;17.30;;;;;;;9.74;100.00;101614.47;143731;608;45923;-81
2023/12/10 04:39:04;;;;;;;26.25;19.92;;;;;;;9.67;100.00;101618.84;143733;651;45011;-82
2023/12/10 04:41:31;;;;;;;23.48;17.58;;;;;;;9.67;100.00;101608.12;143727;610;47013;-82
2023/12/10 04:43:58;;;;;;;21.15;16.55;;;;;;;9.70;100.00;101605.94;143729;575;46004;-82
2023/12/10 04:46:26;;;;;;;23.70;18.50;;;;;;;9.69;100.00;101598.06;143725;604;47008;-82
2023/12/10 04:48:58;;;;;;;24.05;18.83;;;;;;;9.75;100.00;101607.28;143731;622;46018;-83
2023/12/10 04:51:30;;;;;;;23.27;17.67;;;;;;;9.73;100.00;101612.78;143726;580;47010;-90
2023/12/10 04:53:59;;;;;;;21.00;16.70;;;;;;;9.81;100.00;101609.25;143731;613;45926;-84
2023/12/10 04:56:25;;;;;;;21.92;17.45;;;;;;;9.82;100.00;101611.78;143728;592;46924;-82
2023/12/10 04:58:52;;;;;;;26.80;17.75;;;;;;;9.90;100.00;101618.12;143731;597;46004;-82
2023/12/10 05:01:19;;;;;;;22.42;17.73;;;;;;;9.89;100.00;101614.59;143726;573;46011;-82
2023/12/10 05:03:46;;;;;;;26.12;18.40;;;;;;;9.88;100.00;101609.44;143725;586;48004;-82
2023/12/10 05:06:14;;;;;;;27.90;20.27;;;;;;;9.77;100.00;101599.91;143717;599;47008;-81
2023/12/10 05:08:41;;;;;;;29.25;20.10;;;;;;;9.82;100.00;101606.41;143730;587;47011;-82
2023/12/10 05:11:07;;;;;;;27.87;20.10;;;;;;;9.84;100.00;101606.22;143725;579;46012;-83
2023/12/10 05:13:35;;;;;;;30.17;22.55;;;;;;;9.83;100.00;101607.25;143727;613;46006;-83
2023/12/10 05:16:03;;;;;;;34.55;22.90;;;;;;;9.84;100.00;101603.53;143728;585;45924;-81
2023/12/10 05:18:30;;;;;;;31.80;21.20;;;;;;;9.84;100.00;101608.91;143718;665;52002;-82
2023/12/10 05:20:56;;;;;;;29.25;21.70;;;;;;;9.83;100.00;101594.69;143720;581;48008;-82
2023/12/10 05:23:23;;;;;;;29.02;22.33;;;;;;;9.85;100.00;101602.53;143729;605;45926;-83
2023/12/10 05:25:50;;;;;;;26.48;18.50;;;;;;;9.79;100.00;101606.75;143729;586;46008;-82
2023/12/10 05:28:17;;;;;;;23.92;18.65;;;;;;;9.79;100.00;101593.34;143725;598;46008;-82
2023/12/10 05:30:44;;;;;;;25.85;16.75;;;;;;;9.77;100.00;101597.22;143728;587;46012;-82
2023/12/10 05:33:11;;;;;;;19.75;16.25;;;;;;;9.70;100.00;101597.88;143727;593;47011;-82
2023/12/10 05:35:38;;;;;;;22.00;17.52;;;;;;;9.70;100.00;101600.56;143725;567;47008;-82
2023/12/10 05:38:06;;;;;;;24.95;17.73;;;;;;;9.68;100.00;101607.13;143728;670;46008;-82
2023/12/10 05:40:32;;;;;;;23.52;16.75;;;;;;;9.60;100.00;101613.34;143728;583;46013;-81
2023/12/10 05:42:59;;;;;;;23.92;17.70;;;;;;;9.67;100.00;101608.94;143728;664;46004;-82
2023/12/10 05:45:27;;;;;;;24.70;17.58;;;;;;;9.68;100.00;101599.06;143720;591;48008;-81
2023/12/10 05:47:55;;;;;;;23.08;17.87;;;;;;;9.69;100.00;101604.25;143730;579;47002;-83
2023/12/10 05:50:22;;;;;;;24.00;17.65;;;;;;;9.66;100.00;101609.13;143727;588;46010;-82
2023/12/10 05:52:48;;;;;;;23.87;17.42;;;;;;;9.67;100.00;101608.12;143726;587;46010;-82
2023/12/10 05:55:15;;;;;;;26.40;18.35;;;;;;;9.68;100.00;101604.44;143726;634;46008;-83
2023/12/10 05:57:42;;;;;;;26.12;18.17;;;;;;;9.68;100.00;101602.56;143729;587;46021;-82
2023/12/10 06:00:09;;;;;;;24.10;17.55;;;;;;;9.64;100.00;101611.16;143723;601;47010;-83
2023/12/10 06:02:36;;;;;;;30.25;19.62;;;;;;;9.60;100.00;101602.63;143726;651;47004;-82
2023/12/10 06:05:07;;;;;;;31.80;24.50;;;;;;;9.61;100.00;101601.59;143723;582;48002;-82
2023/12/10 06:07:34;;;;;;;32.47;24.10;;;;;;;9.67;100.00;101602.75;143715;663;54004;-82
2023/12/10 06:10:01;;;;;;;34.88;25.95;;;;;;;9.64;100.00;101608.47;143728;573;46010;-82
2023/12/10 06:12:28;;;;;;;38.55;27.70;;;;;;;9.65;100.00;101604.78;143723;569;47010;-83
2023/12/10 06:14:55;;;;;;;45.00;31.70;;;;;;;9.68;100.00;101593.72;143723;601;47008;-83
2023/12/10 06:17:22;;;;;;;44.92;31.90;;;;;;;9.67;100.00;101602.75;143723;609;47002;-82
2023/12/10 06:19:49;;;;;;;42.05;30.98;;;;;;;9.64;100.00;101606.59;143725;653;47006;-83
2023/12/10 06:22:17;;;;;;;45.53;32.03;;;;;;;9.67;100.00;101592.84;143727;603;47004;-82
2023/12/10 06:24:43;;;;;;;43.63;30.48;;;;;;;9.69;100.00;101590.84;143713;625;57004;-83
2023/12/10 06:27:10;;;;;;;36.88;26.58;;;;;;;9.76;100.00;101603.59;143730;573;46006;-83
2023/12/10 06:29:37;;;;;;;36.15;24.75;;;;;;;9.79;100.00;101600.56;143726;655;47006;-83
2023/12/10 06:32:05;;;;;;;36.00;25.35;;;;;;;9.88;100.00;101601.38;143719;601;48004;-83
2023/12/10 06:34:31;;;;;;;33.63;24.15;;;;;;;9.90;100.00;101610.06;143729;573;45923;-82
2023/12/10 06:36:58;;;;;;;37.33;25.65;;;;;;;9.91;100.00;101611.75;143723;575;47004;-82
2023/12/10 06:39:25;;;;;;;52.45;31.87;;;;;;;9.82;100.00;101606.41;143729;661;48013;-82
2023/12/10 06:41:52;;;;;;;47.92;31.15;;;;;;;9.81;100.00;101607.41;143721;568;47006;-82
2023/12/10 06:44:21;;;;;;;33.95;25.12;;;;;;;9.79;100.00;101612.13;143719;574;49006;-83
2023/12/10 06:46:51;;;;;;;33.00;25.92;;;;;;;9.81;100.00;101607.41;143728;573;47004;-82
2023/12/10 06:49:18;;;;;;;33.28;26.35;;;;;;;9.83;100.00;101616.13;143729;574;45921;-84
2023/12/10 06:51:45;;;;;;;35.30;26.58;;;;;;;9.90;100.00;101607.38;143725;607;47004;-82
2023/12/10 06:54:12;;;;;;;37.38;26.92;;;;;;;9.98;100.00;101616.25;143727;645;46924;-82
2023/12/10 06:56:40;;;;;;;35.28;27.37;;;;;;;10.04;100.00;101606.69;143728;598;47002;-82
2023/12/10 06:59:10;;;;;;;38.67;27.58;;;;;;;10.11;100.00;101602.28;143728;590;45922;-82
2023/12/10 07:01:37;;;;;;;36.22;25.62;;;;;;;10.13;100.00;101607.50;143721;568;47006;-82
2023/12/10 07:04:06;;;;;;;28.45;21.95;;;;;;;10.17;100.00;101606.13;143720;593;48008;-83
2023/12/10 07:06:33;;;;;;;34.88;25.65;;;;;;;10.23;100.00;101607.28;143730;572;47006;-83
2023/12/10 07:09:00;;;;;;;35.08;26.70;;;;;;;10.25;100.00;101603.41;143725;679;47011;-83
2023/12/10 07:11:27;;;;;;;30.30;24.67;;;;;;;10.34;100.00;101606.91;143721;647;49004;-82
2023/12/10 07:13:54;;;;;;;33.80;27.48;;;;;;;10.42;100.00;101612.25;143720;577;52004;-83
2023/12/10 07:16:22;;;;;;;26.55;19.67;;;;;;;10.43;100.00;101603.19;143726;582;47006;-82
2023/12/10 07:18:49;;;;;;;26.98;20.15;;;;;;;10.49;100.00;101614.25;143721;595;48010;-83
2023/12/10 07:21:16;;;;;;;32.08;21.40;;;;;;;10.60;100.00;101603.94;143728;568;47006;-82
2023/12/10 07:23:43;;;;;;;29.08;22.65;;;;;;;10.74;100.00;101612.25;143718;580;48008;-82
2023/12/10 07:26:10;;;;;;;23.83;17.95;;;;;;;10.85;100.00;101613.69;143721;612;48002;-84
2023/12/10 07:28:46;;;;;;;21.10;16.10;;;;;;;10.88;100.00;101614.16;143722;595;48010;-83
2023/12/10 07:31:12;;;;;;;24.98;17.08;;;;;;;11.08;100.00;101608.31;143730;654;47007;-83
2023/12/10 07:33:40;;;;;;;21.23;17.17;;;;;;;11.26;100.00;101616.09;143726;575;46008;-84
2023/12/10 07:36:08;;;;;;;25.83;21.10;;;;;;;11.34;100.00;101609.78;143728;583;47004;-81
2023/12/10 07:38:35;;;;;;;26.73;20.30;;;;;;;11.45;100.00;101603.16;143723;604;47012;-82
2023/12/10 07:41:02;;;;;;;27.98;22.20;;;;;;;11.58;100.00;101603.34;143723;625;48004;-81
2023/12/10 07:43:28;;;;;;;27.10;20.30;;;;;;;11.73;100.00;101610.59;143727;600;46923;-82
2023/12/10 07:45:55;;;;;;;25.55;19.92;;;;;;;11.79;100.00;101618.75;143731;579;45010;-80
2023/12/10 07:48:22;;;;;;;25.98;21.02;;;;;;;11.85;100.00;101621.75;143722;622;47013;-79
2023/12/10 07:50:49;;;;;;;29.42;21.60;;;;;;;11.93;100.00;101614.41;143725;645;47013;-79
2023/12/10 07:53:17;;;;;;;24.05;19.00;;;;;;;11.94;100.00;101618.78;143723;600;47004;-80
2023/12/10 07:55:44;;;;;;;24.87;19.60;;;;;;;12.09;100.00;101616.09;143732;646;45010;-80
2023/12/10 07:58:11;;;;;;;25.75;20.60;;;;;;;12.13;100.00;101616.59;143727;662;46920;-80
2023/12/10 08:00:39;;;;;;;28.02;20.23;;;;;;;12.35;100.00;101619.34;143726;647;46010;-80
2023/12/10 08:03:06;;;;;;;25.98;18.87;;;;;;;12.49;100.00;101614.94;143719;698;47008;-81
2023/12/10 08:05:33;;;;;;;30.42;22.62;;;;;;;12.55;100.00;101617.72;143729;616;46002;-79
2023/12/10 08:08:03;;;;;;;26.30;20.50;;;;;;;12.61;100.00;101615.28;143722;623;47921;-81
2023/12/10 08:10:29;;;;;;;30.60;19.25;;;;;;;12.72;100.00;101612.94;143727;567;46926;-80
2023/12/10 08:12:56;;;;;;;23.77;17.33;;;;;;;12.89;100.00;101615.38;143722;590;47006;-81
2023/12/10 08:15:23;;;;;;;26.95;19.92;;;;;;;12.92;100.00;101612.31;143732;592;45014;-81
2023/12/10 08:17:50;;;;;;;29.20;18.60;;;;;;;13.07;100.00;101614.94;143721;575;48010;-79
2023/12/10 08:20:20;;;;;;;23.58;18.58;;;;;;;13.21;98.56;101615.06;143726;625;46929;-79
2023/12/10 08:22:49;;;;;;;24.80;19.55;;;;;;;13.26;98.62;101615.31;143718;636;49006;-80
2023/12/10 08:25:22;;;;;;;30.05;21.12;;;;;;;13.37;98.11;101617.50;143731;573;45010;-80
2023/12/10 08:27:51;;;;;;;35.13;24.67;;;;;;;13.39;97.79;101610.03;143727;633;46008;-79
2023/12/10 08:30:20;;;;;;;26.70;20.52;;;;;;;13.64;97.11;101615.88;143729;599;45930;-80
2023/12/10 08:32:52;;;;;;;30.33;20.58;;;;;;;13.89;96.23;101618.09;143726;630;47923;-80
2023/12/10 08:35:39;;;;;;;;;;;;;;;;;;;;;
2023/12/10 08:38:09;;;;;;;24.92;19.17;;;;;;;14.37;93.78;101605.66;143715;647;48022;-82
2023/12/10 08:40:42;;;;;;;26.85;18.33;;;;;;;14.44;93.23;101600.28;143723;646;47004;-83
2023/12/10 08:43:11;;;;;;;26.85;19.60;;;;;;;14.53;93.36;101597.19;143723;572;46926;-83
2023/12/10 08:45:40;;;;;;;28.20;19.60;;;;;;;14.76;92.36;101595.19;143727;589;47002;-83
2023/12/10 08:48:07;;;;;;;26.25;19.35;;;;;;;14.95;90.55;101596.25;143727;586;46010;-83
2023/12/10 08:50:36;;;;;;;26.83;19.85;;;;;;;15.07;88.99;101600.03;143719;567;47004;-81
2023/12/10 08:53:05;;;;;;;22.05;17.45;;;;;;;15.25;87.35;101585.03;143709;585;48925;-82
2023/12/10 08:55:33;;;;;;;23.70;18.60;;;;;;;15.27;87.27;101582.94;143715;580;49009;-82
2023/12/10 08:58:05;;;;;;;23.65;18.10;;;;;;;15.43;84.85;101574.41;143728;652;46010;-83
2023/12/10 09:00:32;;;;;;;22.33;18.30;;;;;;;17.04;81.89;101563.94;143720;606;48004;-81
2023/12/10 09:03:01;;;;;;;30.20;20.23;;;;;;;21.43;71.21;101563.47;143723;620;47002;-84
2023/12/10 09:05:28;;;;;;;24.12;18.60;;;;;;;25.71;52.90;101544.22;143732;645;45010;-80
2023/12/10 09:07:56;;;;;;;22.17;16.70;;;;;;;27.57;46.27;101545.59;143727;601;47008;-82
2023/12/10 09:10:25;;;;;;;24.58;16.83;;;;;;;29.73;40.68;101528.59;143726;592;46927;-80
2023/12/10 09:12:54;;;;;;;17.25;15.00;;;;;;;30.25;37.75;101523.59;143725;656;46926;-82
2023/12/10 09:15:21;;;;;;;19.90;15.35;;;;;;;29.93;37.10;101517.06;143730;625;46004;-83
2023/12/10 09:17:50;;;;;;;20.12;16.70;;;;;;;28.94;37.32;101516.56;143722;573;47010;-83
2023/12/10 09:20:17;;;;;;;20.25;15.65;;;;;;;27.95;38.75;101507.00;143727;566;47006;-82
2023/12/10 09:22:50;;;;;;;20.95;15.27;;;;;;;27.06;39.61;101509.16;143728;746;46009;-83
2023/12/10 09:25:21;;;;;;;18.45;16.55;;;;;;;25.58;41.19;101510.72;143730;959;46004;-82
2023/12/10 09:27:58;;;;;;;19.83;17.25;;;;;;;24.85;42.87;101500.97;143728;754;46008;-82
2023/12/10 09:30:37;;;;;;;19.25;16.67;;;;;;;24.51;44.06;101494.06;143729;976;45928;-83
2023/12/10 09:33:05;;;;;;;19.12;15.93;;;;;;;24.51;43.79;101483.06;143724;590;47008;-83
2023/12/10 09:35:33;;;;;;;20.37;16.02;;;;;;;24.17;43.92;101477.28;143722;580;48008;-80
2023/12/10 09:38:03;;;;;;;18.17;15.63;;;;;;;23.75;44.06;101479.06;143727;601;47010;-84
2023/12/10 09:40:33;;;;;;;18.98;16.27;;;;;;;23.25;44.25;101478.59;143730;627;45928;-82
2023/12/10 09:43:03;;;;;;;22.25;16.58;;;;;;;22.99;44.75;101473.75;143729;580;46008;-82
2023/12/10 09:45:39;;;;;;;17.92;14.77;;;;;;;22.81;45.95;101469.50;143722;600;48009;-81
2023/12/10 09:48:11;;;;;;;20.48;17.40;;;;;;;22.90;46.00;101463.56;143728;631;46010;-80
2023/12/10 09:50:41;;;;;;;28.02;18.10;;;;;;;23.03;44.99;101454.88;143724;590;48004;-79
2023/12/10 09:53:20;;;;;;;22.00;18.30;;;;;;;23.17;46.05;101457.97;143724;694;47009;-80
2023/12/10 09:55:54;;;;;;;18.10;16.15;;;;;;;23.41;47.02;101452.06;143721;577;55006;-79
2023/12/10 09:58:25;;;;;;;19.92;16.37;;;;;;;23.47;47.41;101457.28;143727;576;46010;-80
2023/12/10 10:01:04;;;;;;;21.42;16.65;;;;;;;23.67;46.50;101449.44;143730;587;45928;-80
2023/12/10 10:03:37;;;;;;;18.77;16.77;;;;;;;23.74;46.95;101441.75;143721;642;47008;-82
2023/12/10 10:06:23;;;;;;;;;;;;;;;;;;;;;
2023/12/10 10:11:26;;;;;;;18.00;15.57;;;;;;;22.98;47.88;101439.22;143720;649;48008;-66
2023/12/10 10:13:53;;;;;;;19.87;16.42;;;;;;;23.19;48.11;101441.25;143722;588;47009;-69
2023/12/10 10:16:19;;;;;;;18.77;16.73;;;;;;;23.59;47.03;101439.81;143723;567;47004;-67
2023/12/10 10:18:47;;;;;;;20.12;17.08;;;;;;;24.25;47.09;101430.06;143724;670;47010;-67
2023/12/10 10:21:14;;;;;;;15.95;13.25;;;;;;;26.93;43.03;101430.72;143722;586;47006;-65
2023/12/10 10:23:42;;;;;;;15.98;12.90;;;;;;;27.53;42.42;101426.72;143723;596;47008;-67
2023/12/10 10:26:08;;;;;;;14.63;12.77;;;;;;;26.55;41.89;101427.78;143723;620;47004;-66
2023/12/10 10:28:35;;;;;;;16.52;13.40;;;;;;;24.95;44.59;101424.00;143723;595;46012;-66
2023/12/10 10:31:02;;;;;;;15.75;13.70;;;;;;;24.07;45.47;101415.78;143720;709;47006;-66
2023/12/10 10:33:28;;;;;;;13.80;12.13;;;;;;;23.74;46.46;101411.59;143723;581;47008;-67
2023/12/10 10:35:56;;;;;;;17.92;12.95;;;;;;;23.68;46.98;101413.50;143723;691;47004;-65
2023/12/10 10:38:22;;;;;;;16.52;14.15;;;;;;;23.60;47.20;101400.31;143724;608;47010;-65
2023/12/10 10:40:49;;;;;;;19.27;13.70;;;;;;;23.63;47.08;101399.78;143723;621;47006;-67
2023/12/10 10:43:16;;;;;;;16.65;14.48;;;;;;;23.90;47.27;101391.34;143723;605;46008;-67
2023/12/10 10:45:42;;;;;;;16.98;14.43;;;;;;;24.31;45.96;101373.25;143722;688;47004;-66
2023/12/10 10:48:10;;;;;;;17.33;15.18;;;;;;;24.45;46.02;101374.31;143724;575;47010;-66
2023/12/10 10:50:39;;;;;;;17.70;13.77;;;;;;;24.56;46.09;101366.09;143721;585;47006;-67
2023/12/10 10:53:07;;;;;;;18.12;13.95;;;;;;;24.38;46.55;101355.41;143725;593;47008;-69
2023/12/10 10:55:34;;;;;;;18.80;14.35;;;;;;;24.11;45.96;101352.94;143722;581;47004;-69
2023/12/10 10:58:24;;;;;;;18.25;14.55;;;;;;;24.35;46.93;101347.75;143718;578;47011;-67
2023/12/10 11:00:51;;;;;;;15.98;14.15;;;;;;;24.76;45.92;101355.09;143720;688;47006;-67
2023/12/10 11:03:17;;;;;;;19.05;14.82;;;;;;;25.35;44.84;101338.87;143724;599;47008;-66
2023/12/10 11:05:44;;;;;;;18.12;15.63;;;;;;;25.80;45.17;101346.34;143725;636;47005;-66
2023/12/10 11:08:11;;;;;;;18.10;15.32;;;;;;;25.75;43.57;101343.62;143722;579;47010;-66
2023/12/10 11:10:43;;;;;;;16.55;14.02;;;;;;;25.36;44.72;101336.97;143720;640;47010;-68
2023/12/10 11:13:10;;;;;;;20.45;15.77;;;;;;;24.71;46.32;101335.06;143724;682;46015;-67
2023/12/10 11:15:37;;;;;;;16.50;13.62;;;;;;;23.90;45.88;101333.72;143725;575;47004;-66
2023/12/10 11:18:05;;;;;;;20.27;13.50;;;;;;;23.31;47.77;101327.59;143720;588;47008;-66
2023/12/10 11:20:43;;;;;;;18.15;13.55;;;;;;;22.94;47.19;101322.25;143720;645;47005;-66
2023/12/10 11:23:20;;;;;;;13.70;12.13;;;;;;;22.24;49.16;101318.50;143723;575;47006;-66
2023/12/10 11:25:49;;;;;;;15.48;12.40;;;;;;;21.91;49.81;101325.09;143723;593;47002;-67
2023/12/10 11:28:20;;;;;;;15.55;13.48;;;;;;;21.34;50.67;101313.56;143725;649;47008;-66
2023/12/10 11:30:47;;;;;;;15.32;12.65;;;;;;;21.01;51.63;101321.66;143721;608;47004;-66
2023/12/10 11:33:14;;;;;;;11.40;9.35;;;;;;;20.60;52.06;101312.94;143724;720;47006;-68
2023/12/10 11:35:41;;;;;;;9.10;7.10;;;;;;;20.37;53.00;101305.78;143725;578;47002;-67
2023/12/10 11:38:08;;;;;;;8.18;6.97;;;;;;;20.18;52.88;101302.47;143726;653;47008;-67
2023/12/10 11:40:35;;;;;;;8.15;6.18;;;;;;;19.96;53.50;101290.41;143721;567;47004;-68
2023/12/10 11:43:06;;;;;;;10.65;7.70;;;;;;;19.82;54.75;101298.06;143725;580;47006;-68
2023/12/10 11:45:33;;;;;;;11.68;9.25;;;;;;;19.42;55.25;101298.16;143724;595;47004;-68
2023/12/10 11:48:00;;;;;;;14.05;12.57;;;;;;;18.93;56.50;101286.56;143722;843;47008;-67
2023/12/10 11:50:26;;;;;;;12.50;11.20;;;;;;;18.93;57.17;101289.28;143722;980;47004;-67
2023/12/10 11:52:53;;;;;;;11.85;9.95;;;;;;;19.02;57.42;101278.88;143723;981;47006;-68
2023/12/10 11:55:19;;;;;;;8.90;6.87;;;;;;;18.85;56.90;101276.09;143723;986;47002;-68
2023/12/10 11:57:46;;;;;;;8.93;7.12;;;;;;;18.69;57.58;101272.19;143722;798;47010;-68
2023/12/10 12:00:13;;;;;;;22.08;17.30;;;;;;;18.39;59.54;101275.91;143720;614;47004;-68
2023/12/10 12:02:44;;;;;;;19.02;16.55;;;;;;;17.99;60.32;101274.72;143721;589;47006;-68
2023/12/10 12:05:12;;;;;;;20.42;18.10;;;;;;;17.99;61.07;101272.00;143724;586;47004;-68
2023/12/10 12:07:39;;;;;;;25.35;20.05;;;;;;;18.00;61.85;101278.25;143724;590;47011;-67
2023/12/10 12:10:07;;;;;;;23.67;20.73;;;;;;;17.82;62.26;101279.16;143718;592;47004;-73
2023/12/10 12:12:40;;;;;;;26.40;21.02;;;;;;;17.66;63.04;101272.50;143722;578;47006;-67
2023/12/10 12:15:09;;;;;;;28.48;21.52;;;;;;;17.55;63.20;101274.97;143724;567;47004;-67
2023/12/10 12:17:36;;;;;;;25.52;20.62;;;;;;;17.46;64.14;101270.09;143722;573;47010;-69
2023/12/10 12:20:21;;;;;;;25.48;21.15;;;;;;;17.38;64.25;101263.91;143720;595;47004;-67
2023/12/10 12:22:49;;;;;;;27.00;21.45;;;;;;;17.33;64.66;101258.34;143724;573;47006;-67
2023/12/10 12:25:16;;;;;;;27.85;19.90;;;;;;;17.19;65.10;101254.16;143720;589;47002;-66
2023/12/10 12:27:43;;;;;;;24.37;20.83;;;;;;;16.94;65.86;101257.81;143720;583;49008;-68
2023/12/10 12:30:10;;;;;;;31.15;23.02;;;;;;;16.76;65.71;101255.91;143721;617;47004;-69
2023/12/10 12:32:36;;;;;;;20.37;18.15;;;;;;;16.58;65.84;101254.88;143724;627;47006;-66
2023/12/10 12:35:03;;;;;;;24.52;19.35;;;;;;;16.42;66.74;101250.84;143723;567;47002;-67
2023/12/10 12:37:29;;;;;;;25.15;20.55;;;;;;;16.57;67.04;101249.69;143723;572;47010;-66
2023/12/10 12:39:56;;;;;;;27.40;22.95;;;;;;;16.67;67.13;101248.09;143723;598;47004;-68
2023/12/10 12:42:23;;;;;;;43.38;32.40;;;;;;;16.48;67.40;101251.84;143724;573;47006;-71
2023/12/10 12:44:50;;;;;;;34.85;26.55;;;;;;;16.42;67.89;101245.44;143724;603;47002;-67
2023/12/10 12:47:17;;;;;;;30.45;24.42;;;;;;;16.40;68.38;101242.12;143722;574;47008;-68
2023/12/10 12:49:43;;;;;;;39.30;27.65;;;;;;;16.37;69.49;101232.56;143723;576;47004;-68
2023/12/10 12:52:10;;;;;;;29.08;21.48;;;;;;;16.32;68.94;101237.00;143727;664;46006;-67
2023/12/10 12:54:36;;;;;;;32.67;26.65;;;;;;;16.40;69.95;101242.12;143723;577;47010;-67
2023/12/10 12:57:03;;;;;;;35.45;28.35;;;;;;;16.40;69.39;101239.44;143725;593;47010;-68
2023/12/10 12:59:29;;;;;;;33.45;25.55;;;;;;;16.31;70.42;101238.03;143722;568;47004;-68
2023/12/10 13:01:56;;;;;;;32.60;23.65;;;;;;;16.36;70.27;101233.59;143725;575;47006;-68
2023/12/10 13:04:22;;;;;;;27.67;22.10;;;;;;;16.42;70.45;101233.78;143725;573;47002;-67
2023/12/10 13:06:48;;;;;;;30.00;22.73;;;;;;;16.43;70.65;101238.94;151860;57;47008;-67
2023/12/10 13:09:16;;;;;;;24.65;19.67;;;;;;;16.39;71.52;101234.22;143724;594;47004;-67
2023/12/10 13:11:43;;;;;;;29.10;21.02;;;;;;;16.35;71.99;101226.53;143722;613;46019;-67
2023/12/10 13:14:09;;;;;;;30.95;22.98;;;;;;;16.39;71.10;101228.78;143709;571;47005;-68
2023/12/10 13:16:36;;;;;;;31.95;21.95;;;;;;;16.36;70.80;101238.22;143725;660;47008;-65